createdAt,value
2022-09-03T00:00:11.769Z,99555.72
2022-09-03T00:01:25.850Z,99555.31
2022-09-03T00:02:46.368Z,99546.16
2022-09-03T00:04:11.381Z,99541.50
2022-09-03T00:05:27.194Z,99549.25
2022-09-03T00:06:49.469Z,99543.19
2022-09-03T00:08:14.597Z,99549.00
2022-09-03T00:09:45.112Z,99547.56
2022-09-03T00:11:19.305Z,99557.44
2022-09-03T00:12:32.265Z,99552.50
2022-09-03T00:14:09.578Z,99540.81
2022-09-03T00:15:23.934Z,99551.66
2022-09-03T00:16:41.510Z,99552.78
2022-09-03T00:18:17.044Z,99544.59
2022-09-03T00:19:29.192Z,99548.78
2022-09-03T00:20:41.789Z,99541.88
2022-09-03T00:22:00.077Z,99520.41
2022-09-03T00:23:14.875Z,99546.94
2022-09-03T00:24:24.265Z,99541.56
2022-09-03T00:25:43.301Z,99546.94
2022-09-03T00:26:57.507Z,99544.69
2022-09-03T00:28:09.100Z,99520.09
2022-09-03T00:29:39.955Z,99544.38
2022-09-03T00:30:55.804Z,99540.13
2022-09-03T00:32:18.099Z,99543.94
2022-09-03T00:33:28.703Z,99543.66
2022-09-03T00:34:41.477Z,99542.69
2022-09-03T00:36:03.321Z,99544.63
2022-09-03T00:37:14.258Z,99546.22
2022-09-03T00:38:20.236Z,99536.34
2022-09-03T00:39:28.308Z,99537.03
2022-09-03T00:41:06.869Z,99539.19
2022-09-03T00:42:48.943Z,99540.72
2022-09-03T00:44:10.081Z,99537.50
2022-09-03T00:45:56.646Z,99537.63
2022-09-03T00:47:16.349Z,99533.13
2022-09-03T00:48:35.971Z,99536.19
2022-09-03T00:50:17.788Z,99533.38
2022-09-03T00:51:35.729Z,99531.25
2022-09-03T00:53:31.801Z,99530.53
2022-09-03T00:55:11.497Z,99533.06
2022-09-03T00:56:45.338Z,99526.88
2022-09-03T00:58:38.106Z,99503.72
2022-09-03T00:59:59.105Z,99523.50
2022-09-03T01:01:25.543Z,99525.63
2022-09-03T01:03:11.769Z,99519.84
2022-09-03T01:04:56.283Z,99529.72
2022-09-03T01:06:23.810Z,99514.75
2022-09-03T01:08:05.159Z,99530.00
2022-09-03T01:09:48.351Z,99532.22
2022-09-03T01:11:23.502Z,99528.56
2022-09-03T01:13:02.319Z,99528.69
2022-09-03T01:14:43.413Z,99530.53
2022-09-03T01:16:11.158Z,99534.34
2022-09-03T01:18:06.822Z,99537.59
2022-09-03T01:20:00.007Z,99536.75
2022-09-03T01:21:52.271Z,99532.50
2022-09-03T01:23:36.157Z,99535.91
2022-09-03T01:25:20.226Z,99534.47
2022-09-03T01:26:35.437Z,99539.81
2022-09-03T01:28:35.057Z,99539.81
2022-09-03T01:30:18.186Z,99524.03
2022-09-03T01:31:46.226Z,99534.75
2022-09-03T01:33:32.295Z,99534.03
2022-09-03T01:35:09.839Z,99511.28
2022-09-03T01:36:54.945Z,99530.06
2022-09-03T01:38:06.957Z,99533.03
2022-09-03T01:39:22.528Z,99520.84
2022-09-03T01:40:48.062Z,99539.63
2022-09-03T01:42:20.417Z,99532.44
2022-09-03T01:43:51.853Z,99533.03
2022-09-03T01:45:33.554Z,99531.91
2022-09-03T01:46:42.757Z,99528.50
2022-09-03T01:48:27.084Z,99528.19
2022-09-03T01:49:41.640Z,99531.03
2022-09-03T01:51:00.403Z,99527.88
2022-09-03T01:52:19.880Z,99529.88
2022-09-03T01:54:25.013Z,99527.56
2022-09-03T01:56:22.524Z,99526.03
2022-09-03T01:57:51.068Z,99525.16
2022-09-03T01:59:18.517Z,99534.59
2022-09-03T02:00:23.235Z,99528.50
2022-09-03T02:01:34.797Z,99522.97
2022-09-03T02:02:39.315Z,99537.94
2022-09-03T02:03:47.280Z,99543.28
2022-09-03T02:05:09.466Z,99540.84
2022-09-03T02:06:13.258Z,99535.91
2022-09-03T02:07:16.948Z,99537.53
2022-09-03T02:08:20.958Z,99535.00
2022-09-03T02:09:25.000Z,99535.59
2022-09-03T02:10:53.916Z,99525.41
2022-09-03T02:12:17.187Z,99536.56
2022-09-03T02:13:36.390Z,99526.50
2022-09-03T02:14:40.670Z,99537.44
2022-09-03T02:15:48.886Z,99538.38
2022-09-03T02:16:53.067Z,99531.34
2022-09-03T02:18:02.559Z,99536.44
2022-09-03T02:19:12.934Z,99542.63
2022-09-03T02:20:22.178Z,99541.06
2022-09-03T02:21:34.257Z,99529.63
2022-09-03T02:22:40.878Z,99534.47
2022-09-03T02:23:44.813Z,99544.19
2022-09-03T02:24:48.431Z,99543.22
2022-09-03T02:26:01.877Z,99530.75
2022-09-03T02:27:05.698Z,99541.78
2022-09-03T02:28:15.732Z,99546.41
2022-09-03T02:29:22.502Z,99539.63
2022-09-03T02:30:26.296Z,99540.34
2022-09-03T02:31:30.382Z,99539.63
2022-09-03T02:32:34.265Z,99535.78
2022-09-03T02:33:42.833Z,99548.78
2022-09-03T02:34:47.419Z,99548.66
2022-09-03T02:35:52.161Z,99541.59
2022-09-03T02:36:55.702Z,99540.88
2022-09-03T02:38:21.305Z,99547.06
2022-09-03T02:39:24.938Z,99539.88
2022-09-03T02:40:28.594Z,99541.13
2022-09-03T02:41:33.618Z,99542.13
2022-09-03T02:42:37.358Z,99530.94
2022-09-03T02:43:52.761Z,99533.50
2022-09-03T02:45:20.590Z,99528.53
2022-09-03T02:46:33.677Z,99529.13
2022-09-03T02:47:44.015Z,99534.22
2022-09-03T02:48:47.592Z,99538.59
2022-09-03T02:49:51.192Z,99529.22
2022-09-03T02:50:55.260Z,99525.84
2022-09-03T02:52:06.828Z,99539.69
2022-09-03T02:53:10.778Z,99543.09
2022-09-03T02:54:18.900Z,99541.66
2022-09-03T02:55:24.411Z,99541.53
2022-09-03T02:56:28.445Z,99537.25
2022-09-03T02:57:32.210Z,99534.59
2022-09-03T02:58:35.961Z,99544.19
2022-09-03T02:59:41.829Z,99549.69
2022-09-03T03:00:45.483Z,99552.59
2022-09-03T03:01:49.787Z,99543.84
2022-09-03T03:02:55.344Z,99545.94
2022-09-03T03:03:59.302Z,99541.81
2022-09-03T03:05:03.172Z,99550.81
2022-09-03T03:06:07.419Z,99550.94
2022-09-03T03:07:11.011Z,99547.28
2022-09-03T03:08:21.473Z,99540.63
2022-09-03T03:09:25.460Z,99536.25
2022-09-03T03:10:29.013Z,99535.28
2022-09-03T03:11:33.319Z,99551.22
2022-09-03T03:12:37.976Z,99548.56
2022-09-03T03:13:41.830Z,99546.72
2022-09-03T03:14:45.525Z,99548.66
2022-09-03T03:15:49.217Z,99553.03
2022-09-03T03:16:52.856Z,99543.81
2022-09-03T03:17:57.608Z,99560.59
2022-09-03T03:19:01.345Z,99550.41
2022-09-03T03:20:05.364Z,99544.59
2022-09-03T03:21:12.843Z,99553.22
2022-09-03T03:22:16.392Z,99550.78
2022-09-03T03:23:20.358Z,99562.47
2022-09-03T03:24:24.113Z,99545.00
2022-09-03T03:25:28.037Z,99551.28
2022-09-03T03:26:31.858Z,99544.75
2022-09-03T03:27:36.156Z,99547.44
2022-09-03T03:28:42.609Z,99551.09
2022-09-03T03:29:46.389Z,99546.72
2022-09-03T03:30:50.310Z,99548.69
2022-09-03T03:31:54.695Z,99546.72
2022-09-03T03:32:58.561Z,99547.00
2022-09-03T03:34:03.949Z,99553.53
2022-09-03T03:35:08.349Z,99548.34
2022-09-03T03:36:16.228Z,99551.38
2022-09-03T03:37:19.810Z,99540.94
2022-09-03T03:38:23.496Z,99517.44
2022-09-03T03:39:27.149Z,99548.69
2022-09-03T03:40:31.693Z,99541.09
2022-09-03T03:41:36.826Z,99541.44
2022-09-03T03:42:40.498Z,99529.31
2022-09-03T03:43:45.368Z,99553.19
2022-09-03T03:44:48.850Z,99555.78
2022-09-03T03:46:01.454Z,99548.97
2022-09-03T03:47:06.183Z,99546.78
2022-09-03T03:48:09.735Z,99548.34
2022-09-03T03:49:13.351Z,99541.94
2022-09-03T03:50:17.508Z,99542.63
2022-09-03T03:51:21.342Z,99548.69
2022-09-03T03:52:27.398Z,99549.53
2022-09-03T03:53:31.865Z,99545.06
2022-09-03T03:54:35.532Z,99530.88
2022-09-03T03:55:39.364Z,99552.22
2022-09-03T03:56:43.099Z,99546.16
2022-09-03T03:57:46.779Z,99540.22
2022-09-03T03:58:50.384Z,99548.13
2022-09-03T03:59:53.900Z,99550.66
2022-09-03T04:01:09.970Z,99532.00
2022-09-03T04:02:14.959Z,99542.16
2022-09-03T04:03:19.508Z,99559.78
2022-09-03T04:04:23.112Z,99554.56
2022-09-03T04:05:26.641Z,99547.16
2022-09-03T04:06:30.531Z,99558.47
2022-09-03T04:07:34.281Z,99550.81
2022-09-03T04:08:40.996Z,99557.34
2022-09-03T04:09:44.949Z,99549.81
2022-09-03T04:10:48.951Z,99557.25
2022-09-03T04:11:52.605Z,99555.53
2022-09-03T04:12:56.527Z,99554.81
2022-09-03T04:14:00.141Z,99555.78
2022-09-03T04:15:04.249Z,99558.19
2022-09-03T04:16:15.872Z,99551.16
2022-09-03T04:17:24.551Z,99556.75
2022-09-03T04:18:30.143Z,99553.59
2022-09-03T04:19:33.727Z,99548.28
2022-09-03T04:20:37.874Z,99554.59
2022-09-03T04:21:41.567Z,99557.25
2022-09-03T04:22:46.540Z,99548.53
2022-09-03T04:23:54.357Z,99550.22
2022-09-03T04:24:57.937Z,99540.75
2022-09-03T04:26:01.916Z,99552.19
2022-09-03T04:27:06.028Z,99550.34
2022-09-03T04:28:09.554Z,99548.75
2022-09-03T04:29:13.282Z,99553.03
2022-09-03T04:30:16.836Z,99536.16
2022-09-03T04:31:21.915Z,99549.25
2022-09-03T04:32:44.343Z,99552.78
2022-09-03T04:33:48.158Z,99555.34
2022-09-03T04:34:51.937Z,99553.16
2022-09-03T04:36:10.853Z,99555.13
2022-09-03T04:37:16.556Z,99536.91
2022-09-03T04:38:20.269Z,99552.91
2022-09-03T04:39:23.997Z,99556.19
2022-09-03T04:40:27.734Z,99550.72
2022-09-03T04:41:32.423Z,99563.81
2022-09-03T04:42:36.112Z,99554.72
2022-09-03T04:43:42.578Z,99554.59
2022-09-03T04:44:46.063Z,99546.69
2022-09-03T04:45:49.842Z,99549.38
2022-09-03T04:46:53.587Z,99549.13
2022-09-03T04:48:00.295Z,99547.41
2022-09-03T04:49:04.048Z,99561.63
2022-09-03T04:50:08.307Z,99552.75
2022-09-03T04:51:15.670Z,99558.44
2022-09-03T04:52:19.720Z,99559.03
2022-09-03T04:53:23.339Z,99566.53
2022-09-03T04:54:28.109Z,99548.19
2022-09-03T04:55:37.778Z,99561.78
2022-09-03T04:56:41.708Z,99557.88
2022-09-03T04:57:45.263Z,99562.88
2022-09-03T04:58:55.775Z,99562.72
2022-09-03T04:59:59.372Z,99567.31
2022-09-03T05:01:09.619Z,99568.63
2022-09-03T05:02:14.683Z,99555.50
2022-09-03T05:03:18.262Z,99565.88
2022-09-03T05:04:21.783Z,99569.16
2022-09-03T05:05:25.481Z,99566.69
2022-09-03T05:06:31.967Z,99562.94
2022-09-03T05:07:38.924Z,99571.03
2022-09-03T05:08:46.555Z,99571.88
2022-09-03T05:09:51.420Z,99571.75
2022-09-03T05:11:01.804Z,99567.63
2022-09-03T05:12:06.065Z,99570.91
2022-09-03T05:13:09.966Z,99569.91
2022-09-03T05:14:13.708Z,99553.03
2022-09-03T05:15:17.342Z,99560.66
2022-09-03T05:16:23.833Z,99568.88
2022-09-03T05:17:28.225Z,99570.91
2022-09-03T05:18:32.369Z,99572.19
2022-09-03T05:19:35.895Z,99581.00
2022-09-03T05:20:39.397Z,99566.19
2022-09-03T05:21:43.352Z,99583.41
2022-09-03T05:22:46.816Z,99584.28
2022-09-03T05:23:52.324Z,99576.34
2022-09-03T05:24:56.431Z,99589.94
2022-09-03T05:26:10.911Z,99589.53
2022-09-03T05:27:18.025Z,99587.16
2022-09-03T05:28:21.526Z,99594.81
2022-09-03T05:29:26.476Z,99598.19
2022-09-03T05:30:30.407Z,99591.16
2022-09-03T05:31:39.140Z,99593.97
2022-09-03T05:32:43.193Z,99591.53
2022-09-03T05:33:53.564Z,99596.19
2022-09-03T05:34:57.292Z,99596.72
2022-09-03T05:36:07.835Z,99591.75
2022-09-03T05:37:12.762Z,99583.84
2022-09-03T05:38:17.218Z,99587.50
2022-09-03T05:39:20.810Z,99589.19
2022-09-03T05:40:24.565Z,99588.97
2022-09-03T05:41:29.886Z,99586.13
2022-09-03T05:42:35.411Z,99590.38
2022-09-03T05:43:39.588Z,99592.19
2022-09-03T05:44:44.249Z,99592.34
2022-09-03T05:45:49.318Z,99591.50
2022-09-03T05:46:53.620Z,99600.09
2022-09-03T05:48:01.880Z,99592.81
2022-09-03T05:49:07.969Z,99589.94
2022-09-03T05:50:11.559Z,99583.72
2022-09-03T05:51:20.443Z,99593.06
2022-09-03T05:52:24.008Z,99588.97
2022-09-03T05:53:29.544Z,99586.00
2022-09-03T05:54:33.047Z,99584.75
2022-09-03T05:55:36.627Z,99581.50
2022-09-03T05:56:42.735Z,99580.41
2022-09-03T05:57:52.536Z,99571.09
2022-09-03T05:59:05.669Z,99567.59
2022-09-03T06:00:10.931Z,99566.06
2022-09-03T06:01:17.420Z,99561.88
2022-09-03T06:02:21.174Z,99543.84
2022-09-03T06:03:25.307Z,99560.72
2022-09-03T06:04:29.082Z,99549.84
2022-09-03T06:05:32.664Z,99557.50
2022-09-03T06:06:39.843Z,99546.50
2022-09-03T06:07:43.485Z,99554.13
2022-09-03T06:08:51.686Z,99542.13
2022-09-03T06:09:55.422Z,99555.25
2022-09-03T06:11:01.430Z,99552.38
2022-09-03T06:12:05.517Z,99560.44
2022-09-03T06:13:09.343Z,99560.06
2022-09-03T06:14:14.656Z,99556.50
2022-09-03T06:15:18.284Z,99545.53
2022-09-03T06:16:30.652Z,99562.44
2022-09-03T06:17:37.764Z,99568.75
2022-09-03T06:18:41.401Z,99555.50
2022-09-03T06:19:45.083Z,99555.59
2022-09-03T06:21:00.226Z,99568.75
2022-09-03T06:22:04.202Z,99560.94
2022-09-03T06:23:07.789Z,99568.75
2022-09-03T06:24:17.987Z,99562.22
2022-09-03T06:25:22.096Z,99566.75
2022-09-03T06:26:28.245Z,99561.63
2022-09-03T06:27:31.763Z,99574.97
2022-09-03T06:28:38.227Z,99575.25
2022-09-03T06:29:42.029Z,99576.50
2022-09-03T06:30:45.563Z,99577.25
2022-09-03T06:31:50.963Z,99575.97
2022-09-03T06:32:54.785Z,99578.56
2022-09-03T06:34:03.402Z,99577.28
2022-09-03T06:35:08.851Z,99575.69
2022-09-03T06:36:16.111Z,99580.19
2022-09-03T06:37:19.710Z,99572.72
2022-09-03T06:38:24.006Z,99576.69
2022-09-03T06:39:27.769Z,99572.91
2022-09-03T06:40:31.961Z,99570.13
2022-09-03T06:41:35.788Z,99569.91
2022-09-03T06:42:41.555Z,99576.56
2022-09-03T06:43:49.627Z,99570.50
2022-09-03T06:44:53.214Z,99581.41
2022-09-03T06:46:03.371Z,99571.00
2022-09-03T06:47:07.008Z,99577.63
2022-09-03T06:48:10.558Z,99573.00
2022-09-03T06:49:14.788Z,99570.66
2022-09-03T06:50:18.592Z,99569.09
2022-09-03T06:51:26.915Z,99565.84
2022-09-03T06:52:30.388Z,99579.16
2022-09-03T06:53:38.233Z,99575.06
2022-09-03T06:54:42.323Z,99584.81
2022-09-03T06:56:01.860Z,99566.28
2022-09-03T06:57:05.664Z,99577.03
2022-09-03T06:58:10.900Z,99580.25
2022-09-03T06:59:15.761Z,99576.81
2022-09-03T07:00:19.396Z,99573.78
2022-09-03T07:01:26.730Z,99562.44
2022-09-03T07:02:30.402Z,99576.72
2022-09-03T07:03:38.962Z,99571.97
2022-09-03T07:04:42.624Z,99571.00
2022-09-03T07:05:48.415Z,99575.69
2022-09-03T07:06:52.001Z,99567.50
2022-09-03T07:07:55.596Z,99573.97
2022-09-03T07:08:59.899Z,99577.41
2022-09-03T07:10:03.741Z,99572.72
2022-09-03T07:11:11.624Z,99583.84
2022-09-03T07:12:18.777Z,99585.47
2022-09-03T07:13:22.809Z,99579.97
2022-09-03T07:14:26.350Z,99582.84
2022-09-03T07:15:30.823Z,99561.00
2022-09-03T07:16:37.452Z,99592.31
2022-09-03T07:17:41.322Z,99593.31
2022-09-03T07:18:46.039Z,99581.88
2022-09-03T07:19:49.600Z,99589.50
2022-09-03T07:20:57.480Z,99591.28
2022-09-03T07:22:01.475Z,99595.81
2022-09-03T07:23:05.046Z,99568.44
2022-09-03T07:24:10.019Z,99593.75
2022-09-03T07:25:13.713Z,99592.06
2022-09-03T07:26:26.358Z,99601.50
2022-09-03T07:27:30.451Z,99593.66
2022-09-03T07:28:37.949Z,99593.94
2022-09-03T07:29:41.635Z,99600.81
2022-09-03T07:30:45.168Z,99587.63
2022-09-03T07:31:53.664Z,99604.16
2022-09-03T07:33:01.888Z,99610.25
2022-09-03T07:34:12.768Z,99603.03
2022-09-03T07:35:16.590Z,99580.44
2022-09-03T07:36:20.091Z,99609.53
2022-09-03T07:37:23.643Z,99598.47
2022-09-03T07:38:27.338Z,99598.00
2022-09-03T07:39:30.880Z,99593.47
2022-09-03T07:40:34.577Z,99600.16
2022-09-03T07:41:39.030Z,99599.09
2022-09-03T07:42:42.675Z,99599.78
2022-09-03T07:43:47.273Z,99602.88
2022-09-03T07:44:50.851Z,99595.00
2022-09-03T07:45:56.114Z,99595.00
2022-09-03T07:47:00.891Z,99590.84
2022-09-03T07:48:04.819Z,99588.75
2022-09-03T07:49:08.526Z,99602.13
2022-09-03T07:50:12.300Z,99591.94
2022-09-03T07:51:16.064Z,99584.53
2022-09-03T07:52:19.696Z,99603.72
2022-09-03T07:53:23.401Z,99606.25
2022-09-03T07:54:27.514Z,99591.41
2022-09-03T07:55:31.399Z,99594.19
2022-09-03T07:56:36.443Z,99595.72
2022-09-03T07:57:40.355Z,99603.34
2022-09-03T07:58:43.956Z,99587.81
2022-09-03T07:59:48.152Z,99598.56
2022-09-03T08:00:51.694Z,99595.19
2022-09-03T08:01:55.552Z,99605.56
2022-09-03T08:03:04.252Z,99609.63
2022-09-03T08:04:09.757Z,99613.47
2022-09-03T08:05:13.818Z,99610.00
2022-09-03T08:06:20.576Z,99617.59
2022-09-03T08:07:24.294Z,99609.16
2022-09-03T08:08:35.478Z,99613.38
2022-09-03T08:09:39.355Z,99614.22
2022-09-03T08:10:42.829Z,99617.91
2022-09-03T08:11:46.314Z,99619.28
2022-09-03T08:12:50.826Z,99613.56
2022-09-03T08:14:02.676Z,99609.22
2022-09-03T08:15:07.023Z,99615.34
2022-09-03T08:16:17.204Z,99607.34
2022-09-03T08:17:20.782Z,99612.22
2022-09-03T08:18:24.564Z,99610.59
2022-09-03T08:19:28.259Z,99610.84
2022-09-03T08:20:32.478Z,99606.69
2022-09-03T08:21:36.464Z,99611.44
2022-09-03T08:22:39.947Z,99615.81
2022-09-03T08:23:49.831Z,99591.66
2022-09-03T08:24:54.678Z,99594.91
2022-09-03T08:26:02.196Z,99614.13
2022-09-03T08:27:05.807Z,99612.13
2022-09-03T08:28:09.314Z,99605.03
2022-09-03T08:29:13.107Z,99611.91
2022-09-03T08:30:17.797Z,99599.59
2022-09-03T08:31:25.262Z,99607.06
2022-09-03T08:32:28.821Z,99604.38
2022-09-03T08:33:38.904Z,99602.28
2022-09-03T08:34:42.608Z,99598.19
2022-09-03T08:35:54.880Z,99601.97
2022-09-03T08:37:01.521Z,99603.75
2022-09-03T08:38:23.452Z,99605.53
2022-09-03T08:39:27.096Z,99599.59
2022-09-03T08:40:34.086Z,99610.09
2022-09-03T08:42:21.353Z,99608.47
2022-09-03T08:43:25.548Z,99609.81
2022-09-03T08:45:02.731Z,99595.75
2022-09-03T08:46:07.370Z,99600.13
2022-09-03T08:47:34.902Z,99609.31
2022-09-03T08:48:38.438Z,99606.38
2022-09-03T08:50:18.311Z,99591.34
2022-09-03T08:51:28.198Z,99607.59
2022-09-03T08:52:49.265Z,99594.97
2022-09-03T08:53:57.505Z,99595.63
2022-09-03T08:55:19.186Z,99609.81
2022-09-03T08:56:29.787Z,99612.63
2022-09-03T08:57:43.567Z,99607.41
2022-09-03T08:58:47.280Z,99610.19
2022-09-03T09:00:00.108Z,99614.28
2022-09-03T09:01:40.076Z,99618.25
2022-09-03T09:03:07.975Z,99617.13
2022-09-03T09:04:35.226Z,99612.03
2022-09-03T09:06:00.443Z,99611.78
2022-09-03T09:07:21.985Z,99623.88
2022-09-03T09:08:53.350Z,99622.56
2022-09-03T09:10:04.157Z,99623.78
2022-09-03T09:11:44.093Z,99616.97
2022-09-03T09:13:41.632Z,99608.22
2022-09-03T09:15:37.705Z,99613.44
2022-09-03T09:17:00.884Z,99612.34
2022-09-03T09:18:31.469Z,99608.13
2022-09-03T09:20:17.466Z,99615.56
2022-09-03T09:21:46.277Z,99609.78
2022-09-03T09:23:04.936Z,99609.63
2022-09-03T09:24:27.323Z,99624.16
2022-09-03T09:25:32.791Z,99622.47
2022-09-03T09:26:36.288Z,99615.00
2022-09-03T09:27:51.783Z,99619.00
2022-09-03T09:29:04.621Z,99622.13
2022-09-03T09:30:18.233Z,99617.13
2022-09-03T09:31:22.348Z,99624.56
2022-09-03T09:32:25.915Z,99620.50
2022-09-03T09:33:32.637Z,99612.59
2022-09-03T09:34:41.347Z,99612.13
2022-09-03T09:35:46.100Z,99616.38
2022-09-03T09:36:54.806Z,99628.31
2022-09-03T09:38:02.396Z,99614.56
2022-09-03T09:39:11.969Z,99620.34
2022-09-03T09:40:44.923Z,99617.88
2022-09-03T09:42:11.566Z,99615.47
2022-09-03T09:43:21.820Z,99622.88
2022-09-03T09:44:27.047Z,99626.00
2022-09-03T09:45:32.617Z,99620.09
2022-09-03T09:46:41.331Z,99623.47
2022-09-03T09:47:47.378Z,99621.78
2022-09-03T09:48:59.435Z,99618.50
2022-09-03T09:50:04.643Z,99621.25
2022-09-03T09:51:18.251Z,99625.72
2022-09-03T09:52:26.144Z,99621.25
2022-09-03T09:53:30.492Z,99624.63
2022-09-03T09:54:34.497Z,99631.41
2022-09-03T09:55:58.228Z,99631.31
2022-09-03T09:57:06.655Z,99628.84
2022-09-03T09:58:14.442Z,99606.97
2022-09-03T09:59:20.202Z,99630.56
2022-09-03T10:00:23.729Z,99627.31
2022-09-03T10:01:30.487Z,99623.16
2022-09-03T10:02:36.797Z,99639.56
2022-09-03T10:03:59.997Z,99623.47
2022-09-03T10:05:37.061Z,99621.44
2022-09-03T10:06:57.335Z,99626.91
2022-09-03T10:08:16.711Z,99625.47
2022-09-03T10:09:31.355Z,99624.13
2022-09-03T10:10:47.235Z,99619.31
2022-09-03T10:12:59.304Z,99616.66
2022-09-03T10:14:06.215Z,99604.50
2022-09-03T10:15:33.812Z,99614.50
2022-09-03T10:16:49.158Z,99596.81
2022-09-03T10:18:28.520Z,99600.19
2022-09-03T10:20:33.999Z,99607.47
2022-09-03T10:21:56.388Z,99606.47
2022-09-03T10:23:18.981Z,99608.31
2022-09-03T10:24:53.076Z,99598.94
2022-09-03T10:26:11.459Z,99596.13
2022-09-03T10:27:19.075Z,99599.25
2022-09-03T10:28:28.078Z,99599.63
2022-09-03T10:29:33.198Z,99601.97
2022-09-03T10:31:44.886Z,99600.94
2022-09-03T10:33:15.914Z,99609.50
2022-09-03T10:34:53.336Z,99610.06
2022-09-03T10:36:17.062Z,99604.84
2022-09-03T10:38:01.601Z,99607.69
2022-09-03T10:39:43.672Z,99618.69
2022-09-03T10:41:08.397Z,99619.69
2022-09-03T10:42:49.442Z,99632.31
2022-09-03T10:44:28.945Z,99628.22
2022-09-03T10:45:42.670Z,99624.47
2022-09-03T10:47:37.092Z,99621.28
2022-09-03T10:49:14.061Z,99621.34
2022-09-03T10:50:23.776Z,99616.69
2022-09-03T10:51:39.044Z,99616.56
2022-09-03T10:53:25.755Z,99625.38
2022-09-03T10:54:35.778Z,99612.06
2022-09-03T10:56:05.739Z,99613.03
2022-09-03T10:57:51.471Z,99621.47
2022-09-03T10:59:29.316Z,99625.84
2022-09-03T11:00:39.348Z,99621.47
2022-09-03T11:02:12.206Z,99616.81
2022-09-03T11:04:09.175Z,99610.56
2022-09-03T11:06:03.904Z,99610.03
2022-09-03T11:07:15.481Z,99612.69
2022-09-03T11:08:43.159Z,99610.97
2022-09-03T11:09:57.432Z,99610.84
2022-09-03T11:11:33.248Z,99601.03
2022-09-03T11:12:45.286Z,99617.44
2022-09-03T11:14:03.784Z,99611.19
2022-09-03T11:15:36.315Z,99616.78
2022-09-03T11:16:55.026Z,99615.78
2022-09-03T11:18:30.785Z,99615.69
2022-09-03T11:19:51.129Z,99621.38
2022-09-03T11:21:07.660Z,99625.44
2022-09-03T11:22:20.900Z,99620.38
2022-09-03T11:23:29.383Z,99625.03
2022-09-03T11:24:40.049Z,99621.63
2022-09-03T11:26:02.197Z,99625.22
2022-09-03T11:27:33.322Z,99614.69
2022-09-03T11:28:45.493Z,99620.22
2022-09-03T11:30:10.446Z,99607.28
2022-09-03T11:31:37.639Z,99601.03
2022-09-03T11:32:53.579Z,99592.13
2022-09-03T11:34:32.659Z,99609.19
2022-09-03T11:35:36.380Z,99603.31
2022-09-03T11:36:44.782Z,99599.28
2022-09-03T11:38:27.657Z,99596.38
2022-09-03T11:39:40.196Z,99595.91
2022-09-03T11:41:14.378Z,99581.59
2022-09-03T11:42:37.092Z,99580.09
2022-09-03T11:43:42.969Z,99581.88
2022-09-03T11:44:52.114Z,99569.44
2022-09-03T11:46:29.972Z,99585.88
2022-09-03T11:47:45.070Z,99575.63
2022-09-03T11:48:58.470Z,99585.94
2022-09-03T11:50:28.082Z,99562.13
2022-09-03T11:51:37.841Z,99577.34
2022-09-03T11:52:41.453Z,99577.63
2022-09-03T11:54:13.967Z,99562.63
2022-09-03T11:55:43.171Z,99570.88
2022-09-03T11:56:49.851Z,99570.22
2022-09-03T11:57:53.552Z,99578.97
2022-09-03T11:59:24.677Z,99574.25
2022-09-03T12:00:28.319Z,99583.03
2022-09-03T12:01:35.525Z,99578.31
2022-09-03T12:02:54.305Z,99571.91
2022-09-03T12:04:06.282Z,99566.31
2022-09-03T12:05:54.416Z,99588.09
2022-09-03T12:07:24.906Z,99583.69
2022-09-03T12:09:06.025Z,99571.06
2022-09-03T12:10:22.723Z,99572.75
2022-09-03T12:12:28.179Z,99576.59
2022-09-03T12:13:56.602Z,99569.53
2022-09-03T12:15:25.982Z,99576.44
2022-09-03T12:17:04.678Z,99580.19
2022-09-03T12:18:31.115Z,99578.47
2022-09-03T12:19:58.926Z,99572.41
2022-09-03T12:21:08.570Z,99561.59
2022-09-03T12:22:17.752Z,99573.59
2022-09-03T12:23:50.286Z,99580.00
2022-09-03T12:24:54.522Z,99569.88
2022-09-03T12:26:09.708Z,99560.75
2022-09-03T12:27:24.927Z,99563.94
2022-09-03T12:28:31.167Z,99565.66
2022-09-03T12:29:34.864Z,99565.66
2022-09-03T12:30:39.388Z,99563.63
2022-09-03T12:31:50.336Z,99554.34
2022-09-03T12:33:06.787Z,99562.78
2022-09-03T12:34:15.201Z,99546.06
2022-09-03T12:36:54.788Z,99571.22
2022-09-03T12:38:08.307Z,99564.66
2022-09-03T12:42:31.458Z,99542.88
2022-09-03T12:43:39.237Z,99549.97
2022-09-03T12:44:43.359Z,99553.00
2022-09-03T12:47:40.614Z,99553.84
2022-09-03T12:50:23.760Z,99553.00
2022-09-03T12:53:03.773Z,99541.53
2022-09-03T12:54:16.067Z,99537.31
2022-09-03T12:55:31.433Z,99537.16
2022-09-03T12:56:42.209Z,99528.38
2022-09-03T12:57:56.952Z,99536.84
2022-09-03T12:59:15.790Z,99530.09
2022-09-03T13:00:19.997Z,99528.09
2022-09-03T13:01:36.770Z,99531.28
2022-09-03T13:03:16.872Z,99537.22
2022-09-03T13:04:32.936Z,99510.88
2022-09-03T13:05:48.749Z,99521.34
2022-09-03T13:07:07.273Z,99530.28
2022-09-03T13:08:21.792Z,99508.34
2022-09-03T13:09:30.111Z,99529.44
2022-09-03T13:10:42.433Z,99529.13
2022-09-03T13:11:46.058Z,99528.94
2022-09-03T13:12:53.172Z,99519.28
2022-09-03T13:14:14.779Z,99532.63
2022-09-03T13:15:30.923Z,99533.81
2022-09-03T13:16:46.490Z,99531.56
2022-09-03T13:18:06.401Z,99520.28
2022-09-03T13:19:52.339Z,99532.75
2022-09-03T13:21:39.957Z,99518.94
2022-09-03T13:23:12.096Z,99531.28
2022-09-03T13:25:02.306Z,99534.63
2022-09-03T13:26:40.803Z,99546.63
2022-09-03T13:27:53.029Z,99534.16
2022-09-03T13:29:23.325Z,99539.06
2022-09-03T13:30:48.941Z,99540.94
2022-09-03T13:32:25.938Z,99533.91
2022-09-03T13:33:56.776Z,99527.84
2022-09-03T13:35:40.628Z,99533.56
2022-09-03T13:37:02.319Z,99541.47
2022-09-03T13:38:43.382Z,99522.06
2022-09-03T13:40:00.740Z,99537.78
2022-09-03T13:41:20.614Z,99533.91
2022-09-03T13:42:58.789Z,99520.41
2022-09-03T13:44:40.888Z,99541.16
2022-09-03T13:46:24.178Z,99535.41
2022-09-03T13:48:04.195Z,99533.91
2022-09-03T13:50:13.213Z,99533.06
2022-09-03T13:51:49.998Z,99534.06
2022-09-03T13:53:05.075Z,99548.59
2022-09-03T13:54:48.743Z,99527.00
2022-09-03T13:56:05.319Z,99528.84
2022-09-03T13:57:38.445Z,99537.25
2022-09-03T13:59:00.930Z,99528.84
2022-09-03T14:00:12.370Z,99522.06
2022-09-03T14:01:27.052Z,99514.66
2022-09-03T14:02:33.310Z,99523.75
2022-09-03T14:03:57.919Z,99524.47
2022-09-03T14:05:10.351Z,99523.75
2022-09-03T14:06:42.685Z,99526.28
2022-09-03T14:07:57.077Z,99529.34
2022-09-03T14:09:12.170Z,99534.25
2022-09-03T14:10:21.612Z,99528.84
2022-09-03T14:12:14.556Z,99534.91
2022-09-03T14:13:48.825Z,99530.53
2022-09-03T14:15:11.074Z,99532.72
2022-09-03T14:16:42.331Z,99532.22
2022-09-03T14:18:12.370Z,99530.84
2022-09-03T14:19:45.585Z,99532.72
2022-09-03T14:21:29.349Z,99532.72
2022-09-03T14:23:03.747Z,99532.34
2022-09-03T14:25:16.429Z,99529.50
2022-09-03T14:26:39.071Z,99534.19
2022-09-03T14:27:43.912Z,99522.38
2022-09-03T14:28:59.415Z,99514.63
2022-09-03T14:30:46.693Z,99530.81
2022-09-03T14:31:56.464Z,99519.47
2022-09-03T14:33:55.138Z,99513.06
2022-09-03T14:35:07.266Z,99519.31
2022-09-03T14:36:52.874Z,99512.22
2022-09-03T14:38:49.868Z,99515.94
2022-09-03T14:40:04.675Z,99522.16
2022-09-03T14:41:17.001Z,99523.53
2022-09-03T14:43:10.289Z,99527.44
2022-09-03T14:44:38.279Z,99532.66
2022-09-03T14:46:28.271Z,99522.34